sensor_id;sensor_type;location;lat;lon;timestamp;P1;durP1;ratioP1;P2;durP2;ratioP2
27618;SDS011;15039;50.830;4.730;2022-12-10T00:00:34;40.63;;;20.25;;
27618;SDS011;15039;50.830;4.730;2022-12-10T00:03:00;37.00;;;19.00;;
27618;SDS011;15039;50.830;4.730;2022-12-10T00:05:26;35.83;;;19.85;;
27618;SDS011;15039;50.830;4.730;2022-12-10T00:07:52;36.53;;;18.90;;
27618;SDS011;15039;50.830;4.730;2022-12-10T00:10:18;35.60;;;19.00;;
27618;SDS011;15039;50.830;4.730;2022-12-10T00:12:43;36.70;;;19.60;;
27618;SDS011;15039;50.830;4.730;2022-12-10T00:15:09;38.17;;;19.67;;
27618;SDS011;15039;50.830;4.730;2022-12-10T00:17:35;41.83;;;19.48;;
27618;SDS011;15039;50.830;4.730;2022-12-10T00:20:01;36.40;;;18.88;;
27618;SDS011;15039;50.830;4.730;2022-12-10T00:22:27;39.03;;;19.70;;
27618;SDS011;15039;50.830;4.730;2022-12-10T00:24:52;38.97;;;18.98;;
27618;SDS011;15039;50.830;4.730;2022-12-10T00:27:18;37.75;;;18.90;;
27618;SDS011;15039;50.830;4.730;2022-12-10T00:29:43;37.08;;;19.35;;
27618;SDS011;15039;50.830;4.730;2022-12-10T00:32:09;43.03;;;18.90;;
27618;SDS011;15039;50.830;4.730;2022-12-10T00:34:34;38.85;;;19.65;;
27618;SDS011;15039;50.830;4.730;2022-12-10T00:37:00;40.72;;;20.20;;
27618;SDS011;15039;50.830;4.730;2022-12-10T00:39:26;39.63;;;19.95;;
27618;SDS011;15039;50.830;4.730;2022-12-10T00:41:52;41.05;;;19.98;;
27618;SDS011;15039;50.830;4.730;2022-12-10T00:44:17;36.53;;;18.80;;
27618;SDS011;15039;50.830;4.730;2022-12-10T00:46:43;41.13;;;20.63;;
27618;SDS011;15039;50.830;4.730;2022-12-10T00:49:09;39.72;;;19.85;;
27618;SDS011;15039;50.830;4.730;2022-12-10T00:51:35;44.90;;;21.50;;
27618;SDS011;15039;50.830;4.730;2022-12-10T00:54:01;37.85;;;18.17;;
27618;SDS011;15039;50.830;4.730;2022-12-10T00:56:29;43.05;;;20.98;;
27618;SDS011;15039;50.830;4.730;2022-12-10T00:58:57;43.25;;;20.40;;
27618;SDS011;15039;50.830;4.730;2022-12-10T01:01:24;41.53;;;20.85;;
27618;SDS011;15039;50.830;4.730;2022-12-10T01:03:56;38.92;;;19.85;;
27618;SDS011;15039;50.830;4.730;2022-12-10T01:06:26;39.13;;;19.48;;
27618;SDS011;15039;50.830;4.730;2022-12-10T01:08:56;39.28;;;18.85;;
27618;SDS011;15039;50.830;4.730;2022-12-10T01:11:24;33.78;;;17.85;;
27618;SDS011;15039;50.830;4.730;2022-12-10T01:13:52;33.03;;;18.38;;
27618;SDS011;15039;50.830;4.730;2022-12-10T01:16:19;35.35;;;16.27;;
27618;SDS011;15039;50.830;4.730;2022-12-10T01:18:48;35.83;;;17.40;;
27618;SDS011;15039;50.830;4.730;2022-12-10T01:21:15;31.40;;;17.23;;
27618;SDS011;15039;50.830;4.730;2022-12-10T01:23:44;32.33;;;16.77;;
27618;SDS011;15039;50.830;4.730;2022-12-10T01:26:13;34.95;;;16.48;;
27618;SDS011;15039;50.830;4.730;2022-12-10T01:28:42;31.65;;;15.98;;
27618;SDS011;15039;50.830;4.730;2022-12-10T01:31:09;29.88;;;16.60;;
27618;SDS011;15039;50.830;4.730;2022-12-10T01:33:49;33.45;;;17.05;;
27618;SDS011;15039;50.830;4.730;2022-12-10T01:36:17;33.78;;;16.33;;
27618;SDS011;15039;50.830;4.730;2022-12-10T01:38:45;35.80;;;17.55;;
27618;SDS011;15039;50.830;4.730;2022-12-10T01:41:19;34.55;;;17.80;;
27618;SDS011;15039;50.830;4.730;2022-12-10T01:43:57;35.85;;;17.70;;
27618;SDS011;15039;50.830;4.730;2022-12-10T01:46:33;33.13;;;17.52;;
27618;SDS011;15039;50.830;4.730;2022-12-10T01:49:01;38.75;;;18.50;;
27618;SDS011;15039;50.830;4.730;2022-12-10T01:51:30;34.95;;;17.40;;
27618;SDS011;15039;50.830;4.730;2022-12-10T01:53:59;37.13;;;17.90;;
27618;SDS011;15039;50.830;4.730;2022-12-10T01:56:26;34.97;;;18.05;;
27618;SDS011;15039;50.830;4.730;2022-12-10T01:58:53;36.42;;;17.55;;
27618;SDS011;15039;50.830;4.730;2022-12-10T02:01:42;35.65;;;18.02;;
27618;SDS011;15039;50.830;4.730;2022-12-10T02:10:25;34.50;;;18.15;;
27618;SDS011;15039;50.830;4.730;2022-12-10T02:13:09;38.83;;;18.03;;
27618;SDS011;15039;50.830;4.730;2022-12-10T02:15:43;36.40;;;18.33;;
27618;SDS011;15039;50.830;4.730;2022-12-10T02:18:25;39.33;;;19.13;;
27618;SDS011;15039;50.830;4.730;2022-12-10T02:20:57;42.15;;;19.45;;
27618;SDS011;15039;50.830;4.730;2022-12-10T02:23:28;42.28;;;19.35;;
27618;SDS011;15039;50.830;4.730;2022-12-10T02:31:46;42.83;;;19.65;;
27618;SDS011;15039;50.830;4.730;2022-12-10T02:34:16;36.58;;;17.77;;
27618;SDS011;15039;50.830;4.730;2022-12-10T02:36:44;41.70;;;18.90;;
27618;SDS011;15039;50.830;4.730;2022-12-10T02:41:42;37.80;;;17.47;;
27618;SDS011;15039;50.830;4.730;2022-12-10T02:44:12;36.03;;;18.48;;
27618;SDS011;15039;50.830;4.730;2022-12-10T02:46:41;40.10;;;18.50;;
27618;SDS011;15039;50.830;4.730;2022-12-10T02:49:08;35.53;;;16.73;;
27618;SDS011;15039;50.830;4.730;2022-12-10T02:51:36;33.00;;;16.10;;
27618;SDS011;15039;50.830;4.730;2022-12-10T02:54:03;32.35;;;16.58;;
27618;SDS011;15039;50.830;4.730;2022-12-10T03:04:23;34.75;;;17.02;;
27618;SDS011;15039;50.830;4.730;2022-12-10T03:06:51;32.63;;;16.17;;
27618;SDS011;15039;50.830;4.730;2022-12-10T03:09:47;34.10;;;16.25;;
27618;SDS011;15039;50.830;4.730;2022-12-10T03:15:12;31.58;;;16.10;;
27618;SDS011;15039;50.830;4.730;2022-12-10T03:17:40;37.85;;;17.27;;
27618;SDS011;15039;50.830;4.730;2022-12-10T03:20:10;37.15;;;16.45;;
27618;SDS011;15039;50.830;4.730;2022-12-10T03:22:38;40.47;;;17.02;;
27618;SDS011;15039;50.830;4.730;2022-12-10T03:27:34;37.65;;;17.17;;
27618;SDS011;15039;50.830;4.730;2022-12-10T03:30:02;35.95;;;16.92;;
27618;SDS011;15039;50.830;4.730;2022-12-10T03:32:28;39.53;;;16.92;;
27618;SDS011;15039;50.830;4.730;2022-12-10T03:34:55;36.10;;;17.15;;
27618;SDS011;15039;50.830;4.730;2022-12-10T03:37:23;36.08;;;17.40;;
27618;SDS011;15039;50.830;4.730;2022-12-10T03:39:50;39.75;;;18.08;;
27618;SDS011;15039;50.830;4.730;2022-12-10T03:42:16;42.63;;;20.70;;
27618;SDS011;15039;50.830;4.730;2022-12-10T03:44:42;40.72;;;19.20;;
27618;SDS011;15039;50.830;4.730;2022-12-10T03:47:10;44.97;;;19.83;;
27618;SDS011;15039;50.830;4.730;2022-12-10T03:52:03;41.83;;;17.55;;
27618;SDS011;15039;50.830;4.730;2022-12-10T03:54:29;45.78;;;19.27;;
27618;SDS011;15039;50.830;4.730;2022-12-10T03:56:54;46.50;;;18.90;;
27618;SDS011;15039;50.830;4.730;2022-12-10T03:59:20;49.95;;;20.67;;
27618;SDS011;15039;50.830;4.730;2022-12-10T04:01:46;48.75;;;20.23;;
27618;SDS011;15039;50.830;4.730;2022-12-10T04:04:12;58.63;;;22.05;;
27618;SDS011;15039;50.830;4.730;2022-12-10T04:06:39;49.63;;;19.73;;
27618;SDS011;15039;50.830;4.730;2022-12-10T04:09:06;56.17;;;19.20;;
27618;SDS011;15039;50.830;4.730;2022-12-10T04:11:34;47.67;;;20.08;;
27618;SDS011;15039;50.830;4.730;2022-12-10T04:14:00;44.72;;;18.92;;
27618;SDS011;15039;50.830;4.730;2022-12-10T04:16:44;54.58;;;20.52;;
27618;SDS011;15039;50.830;4.730;2022-12-10T04:19:10;43.92;;;18.67;;
27618;SDS011;15039;50.830;4.730;2022-12-10T04:21:38;57.70;;;23.48;;
27618;SDS011;15039;50.830;4.730;2022-12-10T04:24:25;50.00;;;22.77;;
27618;SDS011;15039;50.830;4.730;2022-12-10T04:27:12;49.80;;;23.15;;
27618;SDS011;15039;50.830;4.730;2022-12-10T04:29:41;49.58;;;21.38;;
27618;SDS011;15039;50.830;4.730;2022-12-10T04:32:07;54.67;;;22.77;;
27618;SDS011;15039;50.830;4.730;2022-12-10T04:34:33;56.90;;;23.45;;
27618;SDS011;15039;50.830;4.730;2022-12-10T04:36:59;47.58;;;21.95;;
27618;SDS011;15039;50.830;4.730;2022-12-10T04:39:26;61.25;;;25.77;;
27618;SDS011;15039;50.830;4.730;2022-12-10T04:41:52;51.50;;;24.27;;
27618;SDS011;15039;50.830;4.730;2022-12-10T04:44:17;52.78;;;22.95;;
27618;SDS011;15039;50.830;4.730;2022-12-10T04:46:44;54.97;;;23.15;;
27618;SDS011;15039;50.830;4.730;2022-12-10T04:49:10;55.33;;;23.33;;
27618;SDS011;15039;50.830;4.730;2022-12-10T04:51:36;52.90;;;22.70;;
27618;SDS011;15039;50.830;4.730;2022-12-10T04:54:02;50.08;;;22.05;;
27618;SDS011;15039;50.830;4.730;2022-12-10T04:56:28;49.53;;;22.63;;
27618;SDS011;15039;50.830;4.730;2022-12-10T04:58:57;56.55;;;20.75;;
27618;SDS011;15039;50.830;4.730;2022-12-10T05:01:23;48.00;;;20.38;;
27618;SDS011;15039;50.830;4.730;2022-12-10T05:03:50;53.80;;;21.73;;
27618;SDS011;15039;50.830;4.730;2022-12-10T05:06:16;46.95;;;21.20;;
27618;SDS011;15039;50.830;4.730;2022-12-10T05:08:44;49.47;;;21.40;;
27618;SDS011;15039;50.830;4.730;2022-12-10T05:11:14;55.45;;;20.92;;
27618;SDS011;15039;50.830;4.730;2022-12-10T05:13:41;51.70;;;22.60;;
27618;SDS011;15039;50.830;4.730;2022-12-10T05:16:08;48.28;;;20.90;;
27618;SDS011;15039;50.830;4.730;2022-12-10T05:18:36;53.58;;;21.83;;
27618;SDS011;15039;50.830;4.730;2022-12-10T05:21:03;56.55;;;20.88;;
27618;SDS011;15039;50.830;4.730;2022-12-10T05:23:31;52.13;;;21.08;;
27618;SDS011;15039;50.830;4.730;2022-12-10T05:25:58;51.47;;;21.10;;
27618;SDS011;15039;50.830;4.730;2022-12-10T05:28:24;53.60;;;22.10;;
27618;SDS011;15039;50.830;4.730;2022-12-10T05:30:50;51.85;;;22.40;;
27618;SDS011;15039;50.830;4.730;2022-12-10T05:33:16;53.00;;;20.48;;
27618;SDS011;15039;50.830;4.730;2022-12-10T05:35:42;60.38;;;22.70;;
27618;SDS011;15039;50.830;4.730;2022-12-10T05:38:07;49.17;;;20.65;;
27618;SDS011;15039;50.830;4.730;2022-12-10T05:40:35;52.53;;;22.23;;
27618;SDS011;15039;50.830;4.730;2022-12-10T05:43:02;49.08;;;21.15;;
27618;SDS011;15039;50.830;4.730;2022-12-10T05:45:27;50.08;;;20.75;;
27618;SDS011;15039;50.830;4.730;2022-12-10T05:47:53;58.78;;;22.05;;
27618;SDS011;15039;50.830;4.730;2022-12-10T05:50:19;61.58;;;20.33;;
27618;SDS011;15039;50.830;4.730;2022-12-10T05:52:44;54.70;;;21.52;;
27618;SDS011;15039;50.830;4.730;2022-12-10T05:55:10;193.07;;;31.77;;
27618;SDS011;15039;50.830;4.730;2022-12-10T05:57:36;53.92;;;22.98;;
27618;SDS011;15039;50.830;4.730;2022-12-10T06:00:03;44.85;;;20.60;;
27618;SDS011;15039;50.830;4.730;2022-12-10T06:02:32;60.00;;;23.58;;
27618;SDS011;15039;50.830;4.730;2022-12-10T06:04:58;51.13;;;21.67;;
27618;SDS011;15039;50.830;4.730;2022-12-10T06:07:23;52.88;;;21.35;;
27618;SDS011;15039;50.830;4.730;2022-12-10T06:09:49;57.30;;;20.88;;
27618;SDS011;15039;50.830;4.730;2022-12-10T06:12:15;64.50;;;22.70;;
27618;SDS011;15039;50.830;4.730;2022-12-10T06:14:41;53.80;;;22.88;;
27618;SDS011;15039;50.830;4.730;2022-12-10T06:17:06;61.92;;;22.70;;
27618;SDS011;15039;50.830;4.730;2022-12-10T06:19:32;53.67;;;22.75;;
27618;SDS011;15039;50.830;4.730;2022-12-10T06:21:58;53.50;;;21.05;;
27618;SDS011;15039;50.830;4.730;2022-12-10T06:24:24;70.10;;;23.08;;
27618;SDS011;15039;50.830;4.730;2022-12-10T06:26:49;85.47;;;23.50;;
27618;SDS011;15039;50.830;4.730;2022-12-10T06:29:16;97.80;;;26.38;;
27618;SDS011;15039;50.830;4.730;2022-12-10T06:31:41;73.03;;;24.35;;
27618;SDS011;15039;50.830;4.730;2022-12-10T06:34:07;90.68;;;25.05;;
27618;SDS011;15039;50.830;4.730;2022-12-10T06:36:33;60.50;;;22.67;;
27618;SDS011;15039;50.830;4.730;2022-12-10T06:38:58;69.72;;;24.92;;
27618;SDS011;15039;50.830;4.730;2022-12-10T06:41:24;70.97;;;26.17;;
27618;SDS011;15039;50.830;4.730;2022-12-10T06:43:50;72.97;;;25.73;;
27618;SDS011;15039;50.830;4.730;2022-12-10T06:46:17;548.67;;;65.70;;
27618;SDS011;15039;50.830;4.730;2022-12-10T06:48:43;102.97;;;27.88;;
27618;SDS011;15039;50.830;4.730;2022-12-10T06:51:10;64.80;;;26.10;;
27618;SDS011;15039;50.830;4.730;2022-12-10T06:53:37;69.78;;;27.17;;
27618;SDS011;15039;50.830;4.730;2022-12-10T06:56:04;98.55;;;28.92;;
27618;SDS011;15039;50.830;4.730;2022-12-10T06:58:31;71.32;;;24.48;;
27618;SDS011;15039;50.830;4.730;2022-12-10T07:01:05;89.82;;;26.20;;
27618;SDS011;15039;50.830;4.730;2022-12-10T07:03:33;72.95;;;25.63;;
27618;SDS011;15039;50.830;4.730;2022-12-10T07:06:00;81.25;;;26.35;;
27618;SDS011;15039;50.830;4.730;2022-12-10T07:08:26;68.78;;;25.60;;
27618;SDS011;15039;50.830;4.730;2022-12-10T07:10:52;99.70;;;29.20;;
27618;SDS011;15039;50.830;4.730;2022-12-10T07:13:17;91.47;;;28.33;;
27618;SDS011;15039;50.830;4.730;2022-12-10T07:15:43;108.57;;;27.95;;
27618;SDS011;15039;50.830;4.730;2022-12-10T07:18:09;135.18;;;29.38;;
27618;SDS011;15039;50.830;4.730;2022-12-10T07:20:34;135.40;;;29.95;;
27618;SDS011;15039;50.830;4.730;2022-12-10T07:23:00;107.25;;;28.83;;
27618;SDS011;15039;50.830;4.730;2022-12-10T07:25:26;91.38;;;27.75;;
27618;SDS011;15039;50.830;4.730;2022-12-10T07:27:51;122.45;;;31.50;;
27618;SDS011;15039;50.830;4.730;2022-12-10T07:30:17;115.03;;;31.67;;
27618;SDS011;15039;50.830;4.730;2022-12-10T07:32:42;88.10;;;30.08;;
27618;SDS011;15039;50.830;4.730;2022-12-10T07:35:08;77.72;;;28.10;;
27618;SDS011;15039;50.830;4.730;2022-12-10T07:37:33;92.80;;;29.58;;
27618;SDS011;15039;50.830;4.730;2022-12-10T07:39:59;80.40;;;28.38;;
27618;SDS011;15039;50.830;4.730;2022-12-10T07:42:25;88.80;;;27.38;;
27618;SDS011;15039;50.830;4.730;2022-12-10T07:44:50;90.18;;;27.50;;
27618;SDS011;15039;50.830;4.730;2022-12-10T07:47:16;76.30;;;25.02;;
27618;SDS011;15039;50.830;4.730;2022-12-10T07:49:42;89.80;;;27.40;;
27618;SDS011;15039;50.830;4.730;2022-12-10T07:52:07;80.75;;;25.10;;
27618;SDS011;15039;50.830;4.730;2022-12-10T07:54:34;63.88;;;23.85;;
27618;SDS011;15039;50.830;4.730;2022-12-10T07:56:59;81.78;;;25.02;;
27618;SDS011;15039;50.830;4.730;2022-12-10T07:59:25;73.53;;;23.60;;
27618;SDS011;15039;50.830;4.730;2022-12-10T08:01:51;95.00;;;25.52;;
27618;SDS011;15039;50.830;4.730;2022-12-10T08:04:17;101.03;;;27.08;;
27618;SDS011;15039;50.830;4.730;2022-12-10T08:06:43;112.22;;;27.10;;
27618;SDS011;15039;50.830;4.730;2022-12-10T08:09:09;105.88;;;25.30;;
27618;SDS011;15039;50.830;4.730;2022-12-10T08:11:35;96.07;;;26.55;;
27618;SDS011;15039;50.830;4.730;2022-12-10T08:14:00;86.55;;;24.52;;
27618;SDS011;15039;50.830;4.730;2022-12-10T08:16:27;87.30;;;25.52;;
27618;SDS011;15039;50.830;4.730;2022-12-10T08:18:54;96.35;;;27.08;;
27618;SDS011;15039;50.830;4.730;2022-12-10T08:21:22;86.82;;;23.85;;
27618;SDS011;15039;50.830;4.730;2022-12-10T08:23:49;74.68;;;21.80;;
27618;SDS011;15039;50.830;4.730;2022-12-10T08:26:16;63.72;;;22.02;;
27618;SDS011;15039;50.830;4.730;2022-12-10T08:28:43;68.60;;;22.10;;
27618;SDS011;15039;50.830;4.730;2022-12-10T08:31:09;64.88;;;21.35;;
27618;SDS011;15039;50.830;4.730;2022-12-10T08:33:36;70.75;;;23.15;;
27618;SDS011;15039;50.830;4.730;2022-12-10T08:36:03;95.03;;;22.52;;
27618;SDS011;15039;50.830;4.730;2022-12-10T08:38:30;99.68;;;24.17;;
27618;SDS011;15039;50.830;4.730;2022-12-10T08:40:56;78.00;;;23.80;;
27618;SDS011;15039;50.830;4.730;2022-12-10T08:43:22;100.50;;;24.50;;
27618;SDS011;15039;50.830;4.730;2022-12-10T08:45:48;74.97;;;22.70;;
27618;SDS011;15039;50.830;4.730;2022-12-10T08:48:14;75.97;;;22.25;;
27618;SDS011;15039;50.830;4.730;2022-12-10T08:50:40;95.88;;;22.77;;
27618;SDS011;15039;50.830;4.730;2022-12-10T08:53:05;94.53;;;22.27;;
27618;SDS011;15039;50.830;4.730;2022-12-10T08:55:31;81.25;;;22.80;;
27618;SDS011;15039;50.830;4.730;2022-12-10T08:57:57;118.68;;;26.30;;
27618;SDS011;15039;50.830;4.730;2022-12-10T09:00:23;74.88;;;22.20;;
27618;SDS011;15039;50.830;4.730;2022-12-10T09:02:50;88.78;;;22.65;;
27618;SDS011;15039;50.830;4.730;2022-12-10T09:05:16;100.97;;;26.08;;
27618;SDS011;15039;50.830;4.730;2022-12-10T09:07:41;112.97;;;24.58;;
27618;SDS011;15039;50.830;4.730;2022-12-10T09:10:10;118.85;;;24.63;;
27618;SDS011;15039;50.830;4.730;2022-12-10T09:12:37;78.40;;;24.08;;
27618;SDS011;15039;50.830;4.730;2022-12-10T09:15:03;90.78;;;23.98;;
27618;SDS011;15039;50.830;4.730;2022-12-10T09:17:30;59.60;;;21.73;;
27618;SDS011;15039;50.830;4.730;2022-12-10T09:19:56;63.03;;;21.10;;
27618;SDS011;15039;50.830;4.730;2022-12-10T09:22:22;58.28;;;21.73;;
27618;SDS011;15039;50.830;4.730;2022-12-10T09:24:47;59.53;;;21.35;;
27618;SDS011;15039;50.830;4.730;2022-12-10T09:27:13;75.47;;;22.23;;
27618;SDS011;15039;50.830;4.730;2022-12-10T09:29:39;64.88;;;21.63;;
27618;SDS011;15039;50.830;4.730;2022-12-10T09:32:04;66.22;;;21.25;;
27618;SDS011;15039;50.830;4.730;2022-12-10T09:34:30;70.25;;;22.42;;
27618;SDS011;15039;50.830;4.730;2022-12-10T09:36:55;70.57;;;21.77;;
27618;SDS011;15039;50.830;4.730;2022-12-10T09:39:21;66.32;;;21.77;;
27618;SDS011;15039;50.830;4.730;2022-12-10T09:47:03;59.22;;;22.50;;
27618;SDS011;15039;50.830;4.730;2022-12-10T09:52:15;64.32;;;22.35;;
27618;SDS011;15039;50.830;4.730;2022-12-10T09:54:45;53.65;;;20.50;;
27618;SDS011;15039;50.830;4.730;2022-12-10T09:57:19;50.58;;;20.70;;
27618;SDS011;15039;50.830;4.730;2022-12-10T10:00:26;48.17;;;20.00;;
27618;SDS011;15039;50.830;4.730;2022-12-10T10:02:58;53.03;;;18.73;;
27618;SDS011;15039;50.830;4.730;2022-12-10T10:05:29;50.65;;;18.83;;
27618;SDS011;15039;50.830;4.730;2022-12-10T10:08:05;46.05;;;19.35;;
27618;SDS011;15039;50.830;4.730;2022-12-10T10:10:37;47.90;;;18.88;;
27618;SDS011;15039;50.830;4.730;2022-12-10T10:15:34;45.88;;;18.80;;
27618;SDS011;15039;50.830;4.730;2022-12-10T10:18:03;45.70;;;19.10;;
27618;SDS011;15039;50.830;4.730;2022-12-10T10:20:36;42.70;;;17.92;;
27618;SDS011;15039;50.830;4.730;2022-12-10T10:23:01;44.60;;;16.98;;
27618;SDS011;15039;50.830;4.730;2022-12-10T10:25:27;42.28;;;15.73;;
27618;SDS011;15039;50.830;4.730;2022-12-10T10:27:54;37.97;;;16.80;;
27618;SDS011;15039;50.830;4.730;2022-12-10T10:30:21;48.08;;;15.95;;
27618;SDS011;15039;50.830;4.730;2022-12-10T10:32:55;40.58;;;15.65;;
27618;SDS011;15039;50.830;4.730;2022-12-10T10:35:23;39.88;;;16.27;;
27618;SDS011;15039;50.830;4.730;2022-12-10T10:37:52;44.97;;;17.33;;
27618;SDS011;15039;50.830;4.730;2022-12-10T10:42:51;39.65;;;15.85;;
27618;SDS011;15039;50.830;4.730;2022-12-10T10:46:21;35.67;;;16.27;;
27618;SDS011;15039;50.830;4.730;2022-12-10T10:48:17;39.10;;;17.58;;
27618;SDS011;15039;50.830;4.730;2022-12-10T10:50:46;42.65;;;17.50;;
27618;SDS011;15039;50.830;4.730;2022-12-10T10:53:20;39.22;;;18.23;;
27618;SDS011;15039;50.830;4.730;2022-12-10T10:58:56;34.15;;;15.85;;
27618;SDS011;15039;50.830;4.730;2022-12-10T11:01:49;40.90;;;17.90;;
27618;SDS011;15039;50.830;4.730;2022-12-10T11:04:18;36.92;;;17.25;;
27618;SDS011;15039;50.830;4.730;2022-12-10T11:06:48;38.65;;;17.60;;
27618;SDS011;15039;50.830;4.730;2022-12-10T11:09:18;39.20;;;18.17;;
27618;SDS011;15039;50.830;4.730;2022-12-10T11:11:51;34.13;;;17.30;;
27618;SDS011;15039;50.830;4.730;2022-12-10T11:14:24;36.88;;;16.77;;
27618;SDS011;15039;50.830;4.730;2022-12-10T11:17:00;37.75;;;17.10;;
27618;SDS011;15039;50.830;4.730;2022-12-10T11:19:30;32.90;;;16.23;;
27618;SDS011;15039;50.830;4.730;2022-12-10T11:21:57;35.08;;;16.40;;
27618;SDS011;15039;50.830;4.730;2022-12-10T11:24:41;29.52;;;14.52;;
27618;SDS011;15039;50.830;4.730;2022-12-10T11:27:09;39.60;;;16.83;;
27618;SDS011;15039;50.830;4.730;2022-12-10T11:32:33;32.75;;;16.20;;
27618;SDS011;15039;50.830;4.730;2022-12-10T11:37:47;37.00;;;17.58;;
27618;SDS011;15039;50.830;4.730;2022-12-10T11:40:50;38.33;;;17.05;;
27618;SDS011;15039;50.830;4.730;2022-12-10T11:51:40;35.88;;;17.10;;
27618;SDS011;15039;50.830;4.730;2022-12-10T11:54:32;36.67;;;16.92;;
27618;SDS011;15039;50.830;4.730;2022-12-10T12:07:54;31.55;;;16.45;;
27618;SDS011;15039;50.830;4.730;2022-12-10T12:13:40;34.65;;;16.15;;
27618;SDS011;15039;50.830;4.730;2022-12-10T12:16:11;31.27;;;15.10;;
27618;SDS011;15039;50.830;4.730;2022-12-10T12:21:17;27.92;;;15.20;;
27618;SDS011;15039;50.830;4.730;2022-12-10T12:28:59;31.65;;;15.13;;
27618;SDS011;15039;50.830;4.730;2022-12-10T12:31:41;31.83;;;15.20;;
27618;SDS011;15039;50.830;4.730;2022-12-10T12:34:13;29.83;;;16.17;;
27618;SDS011;15039;50.830;4.730;2022-12-10T12:36:41;32.65;;;16.27;;
27618;SDS011;15039;50.830;4.730;2022-12-10T12:39:13;38.78;;;16.90;;
27618;SDS011;15039;50.830;4.730;2022-12-10T12:42:06;31.55;;;15.77;;
27618;SDS011;15039;50.830;4.730;2022-12-10T12:44:48;33.35;;;15.85;;
27618;SDS011;15039;50.830;4.730;2022-12-10T12:50:05;31.27;;;15.48;;
27618;SDS011;15039;50.830;4.730;2022-12-10T12:52:53;33.28;;;16.08;;
27618;SDS011;15039;50.830;4.730;2022-12-10T12:55:25;37.00;;;17.08;;
27618;SDS011;15039;50.830;4.730;2022-12-10T12:58:11;35.88;;;15.63;;
27618;SDS011;15039;50.830;4.730;2022-12-10T13:01:12;36.22;;;15.82;;
27618;SDS011;15039;50.830;4.730;2022-12-10T13:03:40;30.02;;;15.18;;
27618;SDS011;15039;50.830;4.730;2022-12-10T13:06:11;33.67;;;16.30;;
27618;SDS011;15039;50.830;4.730;2022-12-10T13:08:44;31.27;;;15.95;;
27618;SDS011;15039;50.830;4.730;2022-12-10T13:12:15;32.33;;;15.18;;
27618;SDS011;15039;50.830;4.730;2022-12-10T13:14:15;39.30;;;17.33;;
27618;SDS011;15039;50.830;4.730;2022-12-10T13:17:02;32.58;;;15.02;;
27618;SDS011;15039;50.830;4.730;2022-12-10T13:19:33;33.40;;;16.70;;
27618;SDS011;15039;50.830;4.730;2022-12-10T13:22:07;31.88;;;16.02;;
27618;SDS011;15039;50.830;4.730;2022-12-10T13:27:32;32.92;;;15.45;;
27618;SDS011;15039;50.830;4.730;2022-12-10T13:30:04;31.33;;;14.98;;
27618;SDS011;15039;50.830;4.730;2022-12-10T13:32:53;28.50;;;14.65;;
27618;SDS011;15039;50.830;4.730;2022-12-10T13:35:29;34.55;;;16.52;;
27618;SDS011;15039;50.830;4.730;2022-12-10T13:38:17;33.83;;;16.63;;
27618;SDS011;15039;50.830;4.730;2022-12-10T13:40:57;35.72;;;16.40;;
27618;SDS011;15039;50.830;4.730;2022-12-10T13:43:53;37.28;;;17.23;;
27618;SDS011;15039;50.830;4.730;2022-12-10T13:49:29;35.65;;;16.92;;
27618;SDS011;15039;50.830;4.730;2022-12-10T13:52:03;39.47;;;17.60;;
27618;SDS011;15039;50.830;4.730;2022-12-10T13:54:38;37.03;;;17.52;;
27618;SDS011;15039;50.830;4.730;2022-12-10T14:00:15;38.47;;;17.58;;
27618;SDS011;15039;50.830;4.730;2022-12-10T14:05:52;32.88;;;17.85;;
27618;SDS011;15039;50.830;4.730;2022-12-10T14:08:34;37.65;;;17.08;;
27618;SDS011;15039;50.830;4.730;2022-12-10T14:11:03;33.28;;;16.63;;
27618;SDS011;15039;50.830;4.730;2022-12-10T14:13:44;43.42;;;18.30;;
27618;SDS011;15039;50.830;4.730;2022-12-10T14:16:14;40.60;;;19.25;;
27618;SDS011;15039;50.830;4.730;2022-12-10T14:18:44;36.97;;;17.50;;
27618;SDS011;15039;50.830;4.730;2022-12-10T14:21:21;41.58;;;18.67;;
27618;SDS011;15039;50.830;4.730;2022-12-10T14:23:49;45.03;;;18.20;;
27618;SDS011;15039;50.830;4.730;2022-12-10T14:26:20;37.00;;;17.08;;
27618;SDS011;15039;50.830;4.730;2022-12-10T14:28:59;34.50;;;16.98;;
27618;SDS011;15039;50.830;4.730;2022-12-10T14:31:28;37.63;;;16.98;;
27618;SDS011;15039;50.830;4.730;2022-12-10T14:34:02;38.35;;;17.27;;
27618;SDS011;15039;50.830;4.730;2022-12-10T14:37:03;40.80;;;17.60;;
27618;SDS011;15039;50.830;4.730;2022-12-10T14:39:27;38.22;;;16.88;;
27618;SDS011;15039;50.830;4.730;2022-12-10T14:41:55;42.05;;;18.35;;
27618;SDS011;15039;50.830;4.730;2022-12-10T14:44:27;38.38;;;17.23;;
27618;SDS011;15039;50.830;4.730;2022-12-10T14:47:14;45.38;;;18.75;;
27618;SDS011;15039;50.830;4.730;2022-12-10T14:49:42;40.75;;;18.33;;
27618;SDS011;15039;50.830;4.730;2022-12-10T14:52:14;44.25;;;18.75;;
27618;SDS011;15039;50.830;4.730;2022-12-10T14:54:51;44.20;;;19.00;;
27618;SDS011;15039;50.830;4.730;2022-12-10T15:00:07;43.55;;;18.80;;
27618;SDS011;15039;50.830;4.730;2022-12-10T15:02:42;42.58;;;18.63;;
27618;SDS011;15039;50.830;4.730;2022-12-10T15:05:18;43.20;;;18.27;;
27618;SDS011;15039;50.830;4.730;2022-12-10T15:07:50;43.95;;;18.83;;
27618;SDS011;15039;50.830;4.730;2022-12-10T15:10:37;43.78;;;19.00;;
27618;SDS011;15039;50.830;4.730;2022-12-10T15:13:05;40.00;;;17.73;;
27618;SDS011;15039;50.830;4.730;2022-12-10T15:15:34;41.03;;;18.75;;
27618;SDS011;15039;50.830;4.730;2022-12-10T15:26:43;40.80;;;18.17;;
27618;SDS011;15039;50.830;4.730;2022-12-10T15:28:40;40.53;;;17.10;;
27618;SDS011;15039;50.830;4.730;2022-12-10T15:33:42;39.47;;;18.42;;
27618;SDS011;15039;50.830;4.730;2022-12-10T15:36:25;37.33;;;17.40;;
27618;SDS011;15039;50.830;4.730;2022-12-10T15:39:02;38.50;;;18.42;;
27618;SDS011;15039;50.830;4.730;2022-12-10T15:49:34;28.73;;;14.23;;
27618;SDS011;15039;50.830;4.730;2022-12-10T15:52:00;33.78;;;15.50;;
27618;SDS011;15039;50.830;4.730;2022-12-10T15:54:28;31.67;;;14.45;;
27618;SDS011;15039;50.830;4.730;2022-12-10T15:56:59;32.60;;;15.40;;
27618;SDS011;15039;50.830;4.730;2022-12-10T15:59:24;30.85;;;14.40;;
27618;SDS011;15039;50.830;4.730;2022-12-10T16:01:50;41.25;;;17.23;;
27618;SDS011;15039;50.830;4.730;2022-12-10T16:04:16;32.28;;;14.77;;
27618;SDS011;15039;50.830;4.730;2022-12-10T16:06:41;38.45;;;16.10;;
27618;SDS011;15039;50.830;4.730;2022-12-10T16:09:08;37.00;;;16.75;;
27618;SDS011;15039;50.830;4.730;2022-12-10T16:11:34;35.47;;;16.10;;
27618;SDS011;15039;50.830;4.730;2022-12-10T16:14:00;37.88;;;16.33;;
27618;SDS011;15039;50.830;4.730;2022-12-10T16:16:27;38.55;;;16.13;;
27618;SDS011;15039;50.830;4.730;2022-12-10T16:18:53;33.50;;;16.05;;
27618;SDS011;15039;50.830;4.730;2022-12-10T16:21:18;33.08;;;15.18;;
27618;SDS011;15039;50.830;4.730;2022-12-10T16:23:44;41.15;;;16.20;;
27618;SDS011;15039;50.830;4.730;2022-12-10T16:26:19;36.78;;;16.63;;
27618;SDS011;15039;50.830;4.730;2022-12-10T16:28:46;41.88;;;17.60;;
27618;SDS011;15039;50.830;4.730;2022-12-10T16:31:17;36.92;;;16.45;;
27618;SDS011;15039;50.830;4.730;2022-12-10T16:33:45;37.42;;;17.17;;